Snow/Ice From: 17-12-2017 10:00 Until: 18-12-2017 06:00 warning for: Snow/Ice Level: Yellow info button

Although rather usual in this region, locally or potentially dangerous phenomena are expected. (such as local winds, summer thunderstorms, rising streams or high waves) Be aware and pay attention to the latest weather updates, especially if you carry out activities exposed to weather or close to a stream or shoreline. 


Meteo18 Weather Cam more information Meteo18 Weather Cam


Thunder radar more information blitzortung!


warning for Snow/Ice more information rain snow radar


Visit our other weather sites:

Template documentation
and downloads

And another site



Weather Underground History page Text

Daily Summary for June 18, 2017 Units:  Both    English   Metric
« Previous Day
Next Day »
Daily Weekly Monthly Yearly Custom
  High: Low: Average:
Temperature: 85.1 °F /  29.5 °C 61 °F /  16.1 °C 73.8 °F /  23.2 °C
Dew Point: 62.1 °F /  16.7 °C 55.9 °F /  13.3 °C 58.6 °F /  14.8 °C
Humidity: 84 % 42 % 61 %
Wind Speed: 19 mph /  30.6 km/h - 6.3 mph /  10.1 km/h
Wind Gust: 21 mph /  33.8 km/h - -
Wind:- - ENE
Pressure: 30.3 in /  1024.6 hPa 30.1 in /  1018.8 hPa -
Precipitation: 0 in /  0.0 mm    
Historical Graphs
 
 
Tabular Data for June 18, 2017
Time Temperature Dew Point Pressure Wind Wind Speed Wind Gust Humidity Rainfall Rate (Hourly)
00:02 66.9 °F /  19.4 °C 57.6 °F /  14.2 °C 30.3 in /  1024.6 hPa NNE 7 mph /  11.3 km/h 12 mph /  19.3 km/h 72 % 0 in /  0.0 mm
00:07 66.9 °F /  19.4 °C 57.6 °F /  14.2 °C 30.3 in /  1024.6 hPa NW 4 mph /  6.4 km/h 12 mph /  19.3 km/h 72 % 0 in /  0.0 mm
00:12 66.7 °F /  19.3 °C 57.7 °F /  14.3 °C 30.3 in /  1024.6 hPa NNE 3 mph /  4.8 km/h 12 mph /  19.3 km/h 73 % 0 in /  0.0 mm
00:17 66.7 °F /  19.3 °C 57.7 °F /  14.3 °C 30.3 in /  1024.6 hPa NE 7 mph /  11.3 km/h 12 mph /  19.3 km/h 73 % 0 in /  0.0 mm
00:22 66.7 °F /  19.3 °C 57.7 °F /  14.3 °C 30.3 in /  1024.6 hPa North 4 mph /  6.4 km/h 11 mph /  17.7 km/h 73 % 0 in /  0.0 mm
00:32 66.4 °F /  19.1 °C 57.4 °F /  14.1 °C 30.3 in /  1024.6 hPa NE 3 mph /  4.8 km/h 11 mph /  17.7 km/h 73 % 0 in /  0.0 mm
00:42 66 °F /  18.9 °C 57.6 °F /  14.2 °C 30.3 in /  1024.6 hPa NE 2 mph /  3.2 km/h 8 mph /  12.9 km/h 74 % 0 in /  0.0 mm
00:47 66 °F /  18.9 °C 57.6 °F /  14.2 °C 30.3 in /  1024.6 hPa NNW 3 mph /  4.8 km/h 8 mph /  12.9 km/h 74 % 0 in /  0.0 mm
00:52 65.8 °F /  18.8 °C 57.7 °F /  14.3 °C 30.3 in /  1024.6 hPa NNE 2 mph /  3.2 km/h 8 mph /  12.9 km/h 75 % 0 in /  0.0 mm
00:57 65.8 °F /  18.8 °C 57.7 °F /  14.3 °C 30.3 in /  1024.3 hPa NNW 3 mph /  4.8 km/h 9 mph /  14.5 km/h 75 % 0 in /  0.0 mm
01:02 65.7 °F /  18.7 °C 57.6 °F /  14.2 °C 30.3 in /  1024.3 hPa ENE 3 mph /  4.8 km/h 9 mph /  14.5 km/h 75 % 0 in /  0.0 mm
01:07 65.5 °F /  18.6 °C 57.4 °F /  14.1 °C 30.3 in /  1024.3 hPa NW 4 mph /  6.4 km/h 9 mph /  14.5 km/h 75 % 0 in /  0.0 mm
01:12 65.5 °F /  18.6 °C 57.7 °F /  14.3 °C 30.3 in /  1024.3 hPa ENE 4 mph /  6.4 km/h 10 mph /  16.1 km/h 76 % 0 in /  0.0 mm
01:17 65.7 °F /  18.7 °C 57.6 °F /  14.2 °C 30.3 in /  1024.3 hPa North 3 mph /  4.8 km/h 11 mph /  17.7 km/h 75 % 0 in /  0.0 mm
01:22 65.3 °F /  18.5 °C 57.6 °F /  14.2 °C 30.3 in /  1024.3 hPa NE 5 mph /  8.0 km/h 13 mph /  20.9 km/h 76 % 0 in /  0.0 mm
01:27 65.1 °F /  18.4 °C 57.4 °F /  14.1 °C 30.3 in /  1024.3 hPa North 5 mph /  8.0 km/h 13 mph /  20.9 km/h 76 % 0 in /  0.0 mm
01:37 65.3 °F /  18.5 °C 57.6 °F /  14.2 °C 30.3 in /  1024.3 hPa NE 8 mph /  12.9 km/h 11 mph /  17.7 km/h 76 % 0 in /  0.0 mm
01:42 65.5 °F /  18.6 °C 57.7 °F /  14.3 °C 30.3 in /  1024.3 hPa NNE 8 mph /  12.9 km/h 12 mph /  19.3 km/h 76 % 0 in /  0.0 mm
01:47 65.3 °F /  18.5 °C 57.6 °F /  14.2 °C 30.3 in /  1024.3 hPa NNE 6 mph /  9.7 km/h 12 mph /  19.3 km/h 76 % 0 in /  0.0 mm
01:52 65.1 °F /  18.4 °C 57.7 °F /  14.3 °C 30.3 in /  1024.3 hPa NNE 6 mph /  9.7 km/h 12 mph /  19.3 km/h 77 % 0 in /  0.0 mm
01:57 65.1 °F /  18.4 °C 57.7 °F /  14.3 °C 30.3 in /  1024.3 hPa NE 5 mph /  8.0 km/h 13 mph /  20.9 km/h 77 % 0 in /  0.0 mm
02:02 64.9 °F /  18.3 °C 57.6 °F /  14.2 °C 30.3 in /  1024.3 hPa NE 8 mph /  12.9 km/h 13 mph /  20.9 km/h 77 % 0 in /  0.0 mm
02:07 64.8 °F /  18.2 °C 57.4 °F /  14.1 °C 30.3 in /  1024.3 hPa NE 5 mph /  8.0 km/h 13 mph /  20.9 km/h 77 % 0 in /  0.0 mm
02:12 64.6 °F /  18.1 °C 57.6 °F /  14.2 °C 30.2 in /  1023.9 hPa NE 4 mph /  6.4 km/h 11 mph /  17.7 km/h 78 % 0 in /  0.0 mm
02:17 64.2 °F /  17.9 °C 57.6 °F /  14.2 °C 30.2 in /  1023.9 hPa NNE 6 mph /  9.7 km/h 8 mph /  12.9 km/h 79 % 0 in /  0.0 mm
02:22 64 °F /  17.8 °C 57.4 °F /  14.1 °C 30.2 in /  1023.9 hPa NE 3 mph /  4.8 km/h 8 mph /  12.9 km/h 79 % 0 in /  0.0 mm
02:32 63.7 °F /  17.6 °C 57.4 °F /  14.1 °C 30.2 in /  1023.9 hPa NNE 2 mph /  3.2 km/h 8 mph /  12.9 km/h 80 % 0 in /  0.0 mm
02:37 63.3 °F /  17.4 °C 57 °F /  13.9 °C 30.2 in /  1023.9 hPa NNE 2 mph /  3.2 km/h 5 mph /  8.0 km/h 80 % 0 in /  0.0 mm
02:42 63.3 °F /  17.4 °C 57 °F /  13.9 °C 30.2 in /  1023.9 hPa NE 3 mph /  4.8 km/h 7 mph /  11.3 km/h 80 % 0 in /  0.0 mm
02:47 63.3 °F /  17.4 °C 57 °F /  13.9 °C 30.2 in /  1023.9 hPa NNE 2 mph /  3.2 km/h 7 mph /  11.3 km/h 80 % 0 in /  0.0 mm
02:52 63.1 °F /  17.3 °C 57.2 °F /  14.0 °C 30.2 in /  1023.9 hPa NNE 2 mph /  3.2 km/h 7 mph /  11.3 km/h 81 % 0 in /  0.0 mm
02:57 63.3 °F /  17.4 °C 57.4 °F /  14.1 °C 30.2 in /  1023.9 hPa NE 7 mph /  11.3 km/h 7 mph /  11.3 km/h 81 % 0 in /  0.0 mm
03:02 63.5 °F /  17.5 °C 57.6 °F /  14.2 °C 30.2 in /  1023.6 hPa North 4 mph /  6.4 km/h 7 mph /  11.3 km/h 81 % 0 in /  0.0 mm
03:07 63.5 °F /  17.5 °C 57.6 °F /  14.2 °C 30.2 in /  1023.6 hPa NE 5 mph /  8.0 km/h 10 mph /  16.1 km/h 81 % 0 in /  0.0 mm
03:12 63.7 °F /  17.6 °C 57.4 °F /  14.1 °C 30.2 in /  1023.6 hPa NE 6 mph /  9.7 km/h 10 mph /  16.1 km/h 80 % 0 in /  0.0 mm
03:17 63.7 °F /  17.6 °C 57.4 °F /  14.1 °C 30.2 in /  1023.6 hPa NE 5 mph /  8.0 km/h 10 mph /  16.1 km/h 80 % 0 in /  0.0 mm
03:22 63.7 °F /  17.6 °C 57.4 °F /  14.1 °C 30.2 in /  1023.6 hPa NNW 5 mph /  8.0 km/h 9 mph /  14.5 km/h 80 % 0 in /  0.0 mm
03:32 63.5 °F /  17.5 °C 57.6 °F /  14.2 °C 30.2 in /  1023.6 hPa NNE 5 mph /  8.0 km/h 8 mph /  12.9 km/h 81 % 0 in /  0.0 mm
03:37 63.3 °F /  17.4 °C 57.4 °F /  14.1 °C 30.2 in /  1023.6 hPa ENE 4 mph /  6.4 km/h 8 mph /  12.9 km/h 81 % 0 in /  0.0 mm
03:42 63.3 °F /  17.4 °C 57.4 °F /  14.1 °C 30.2 in /  1023.6 hPa NNE 2 mph /  3.2 km/h 8 mph /  12.9 km/h 81 % 0 in /  0.0 mm
03:47 63.1 °F /  17.3 °C 57.2 °F /  14.0 °C 30.2 in /  1023.6 hPa NE 4 mph /  6.4 km/h 7 mph /  11.3 km/h 81 % 0 in /  0.0 mm
03:52 63.1 °F /  17.3 °C 57.2 °F /  14.0 °C 30.2 in /  1023.6 hPa NE 5 mph /  8.0 km/h 10 mph /  16.1 km/h 81 % 0 in /  0.0 mm
03:57 63 °F /  17.2 °C 57 °F /  13.9 °C 30.2 in /  1023.2 hPa NE 7 mph /  11.3 km/h 10 mph /  16.1 km/h 81 % 0 in /  0.0 mm
04:02 63 °F /  17.2 °C 57.4 °F /  14.1 °C 30.2 in /  1023.2 hPa NE 5 mph /  8.0 km/h 10 mph /  16.1 km/h 82 % 0 in /  0.0 mm
04:07 63 °F /  17.2 °C 57.4 °F /  14.1 °C 30.2 in /  1023.2 hPa NE 4 mph /  6.4 km/h 10 mph /  16.1 km/h 82 % 0 in /  0.0 mm
04:12 63 °F /  17.2 °C 57.4 °F /  14.1 °C 30.2 in /  1023.2 hPa NNW 2 mph /  3.2 km/h 10 mph /  16.1 km/h 82 % 0 in /  0.0 mm
04:17 63 °F /  17.2 °C 57.4 °F /  14.1 °C 30.2 in /  1023.2 hPa NE 2 mph /  3.2 km/h 8 mph /  12.9 km/h 82 % 0 in /  0.0 mm
04:22 62.8 °F /  17.1 °C 57.2 °F /  14.0 °C 30.2 in /  1023.2 hPa NE 3 mph /  4.8 km/h 10 mph /  16.1 km/h 82 % 0 in /  0.0 mm
04:27 62.6 °F /  17.0 °C 57 °F /  13.9 °C 30.2 in /  1023.2 hPa North 5 mph /  8.0 km/h 10 mph /  16.1 km/h 82 % 0 in /  0.0 mm
04:32 62.4 °F /  16.9 °C 56.8 °F /  13.8 °C 30.2 in /  1023.2 hPa ENE 2 mph /  3.2 km/h 10 mph /  16.1 km/h 82 % 0 in /  0.0 mm
04:37 62.2 °F /  16.8 °C 57 °F /  13.9 °C 30.2 in /  1023.2 hPa WNW 1 mph /  1.6 km/h 7 mph /  11.3 km/h 83 % 0 in /  0.0 mm
04:42 62.1 °F /  16.7 °C 56.8 °F /  13.8 °C 30.2 in /  1023.2 hPa NE 2 mph /  3.2 km/h 6 mph /  9.7 km/h 83 % 0 in /  0.0 mm
04:47 62.1 °F /  16.7 °C 56.8 °F /  13.8 °C 30.2 in /  1022.9 hPa NNW 1 mph /  1.6 km/h 6 mph /  9.7 km/h 83 % 0 in /  0.0 mm
04:52 62.1 °F /  16.7 °C 56.8 °F /  13.8 °C 30.2 in /  1022.9 hPa ENE 2 mph /  3.2 km/h 6 mph /  9.7 km/h 83 % 0 in /  0.0 mm
05:02 61.7 °F /  16.5 °C 56.5 °F /  13.6 °C 30.2 in /  1022.9 hPa NE 2 mph /  3.2 km/h 8 mph /  12.9 km/h 83 % 0 in /  0.0 mm
05:07 61.5 °F /  16.4 °C 56.3 °F /  13.5 °C 30.2 in /  1022.9 hPa NE 3 mph /  4.8 km/h 8 mph /  12.9 km/h 83 % 0 in /  0.0 mm
05:12 61.3 °F /  16.3 °C 56.5 °F /  13.6 °C 30.2 in /  1022.6 hPa NNE 4 mph /  6.4 km/h 8 mph /  12.9 km/h 84 % 0 in /  0.0 mm
05:17 61.5 °F /  16.4 °C 56.7 °F /  13.7 °C 30.2 in /  1022.6 hPa NNW 5 mph /  8.0 km/h 8 mph /  12.9 km/h 84 % 0 in /  0.0 mm
05:22 61.5 °F /  16.4 °C 56.3 °F /  13.5 °C 30.2 in /  1022.6 hPa North 2 mph /  3.2 km/h 8 mph /  12.9 km/h 83 % 0 in /  0.0 mm
05:32 61.3 °F /  16.3 °C 56.1 °F /  13.4 °C 30.2 in /  1022.6 hPa NE 3 mph /  4.8 km/h 10 mph /  16.1 km/h 83 % 0 in /  0.0 mm
05:42 61.5 °F /  16.4 °C 56.3 °F /  13.5 °C 30.2 in /  1022.6 hPa NE 4 mph /  6.4 km/h 7 mph /  11.3 km/h 83 % 0 in /  0.0 mm
05:52 61.2 °F /  16.2 °C 55.9 °F /  13.3 °C 30.2 in /  1022.6 hPa Calm   9 mph /  14.5 km/h 83 % 0 in /  0.0 mm
05:57 61.2 °F /  16.2 °C 56.3 °F /  13.5 °C 30.2 in /  1022.6 hPa NNW 1 mph /  1.6 km/h 9 mph /  14.5 km/h 84 % 0 in /  0.0 mm
06:02 61.2 °F /  16.2 °C 55.9 °F /  13.3 °C 30.2 in /  1022.6 hPa North 3 mph /  4.8 km/h 9 mph /  14.5 km/h 83 % 0 in /  0.0 mm
06:12 61.2 °F /  16.2 °C 55.9 °F /  13.3 °C 30.2 in /  1022.6 hPa North 1 mph /  1.6 km/h 6 mph /  9.7 km/h 83 % 0 in /  0.0 mm
06:17 61 °F /  16.1 °C 56.1 °F /  13.4 °C 30.2 in /  1022.6 hPa Calm   7 mph /  11.3 km/h 84 % 0 in /  0.0 mm
06:27 61.2 °F /  16.2 °C 56.3 °F /  13.5 °C 30.2 in /  1022.6 hPa NNE 2 mph /  3.2 km/h 7 mph /  11.3 km/h 84 % 0 in /  0.0 mm
06:32 61.2 °F /  16.2 °C 56.3 °F /  13.5 °C 30.2 in /  1022.6 hPa NE 2 mph /  3.2 km/h 7 mph /  11.3 km/h 84 % 0 in /  0.0 mm
06:42 61.9 °F /  16.6 °C 56.7 °F /  13.7 °C 30.2 in /  1022.2 hPa NNE 4 mph /  6.4 km/h 7 mph /  11.3 km/h 83 % 0 in /  0.0 mm
06:47 62.1 °F /  16.7 °C 56.5 °F /  13.6 °C 30.2 in /  1022.2 hPa Calm   6 mph /  9.7 km/h 82 % 0 in /  0.0 mm
06:52 62.4 °F /  16.9 °C 56.8 °F /  13.8 °C 30.2 in /  1022.2 hPa NNE 3 mph /  4.8 km/h 6 mph /  9.7 km/h 82 % 0 in /  0.0 mm
07:02 63 °F /  17.2 °C 56.7 °F /  13.7 °C 30.2 in /  1022.2 hPa NNE 3 mph /  4.8 km/h 5 mph /  8.0 km/h 80 % 0 in /  0.0 mm
07:12 63.3 °F /  17.4 °C 57 °F /  13.9 °C 30.2 in /  1022.2 hPa NNE 5 mph /  8.0 km/h 8 mph /  12.9 km/h 80 % 0 in /  0.0 mm
07:22 63.9 °F /  17.7 °C 57.2 °F /  14.0 °C 30.2 in /  1022.2 hPa NE 9 mph /  14.5 km/h 9 mph /  14.5 km/h 79 % 0 in /  0.0 mm
07:32 64.2 °F /  17.9 °C 56.8 °F /  13.8 °C 30.2 in /  1022.2 hPa NE 8 mph /  12.9 km/h 11 mph /  17.7 km/h 77 % 0 in /  0.0 mm
07:42 64.6 °F /  18.1 °C 57.2 °F /  14.0 °C 30.2 in /  1022.2 hPa ENE 7 mph /  11.3 km/h 14 mph /  22.5 km/h 77 % 0 in /  0.0 mm
07:47 64.6 °F /  18.1 °C 57.2 °F /  14.0 °C 30.2 in /  1022.2 hPa NE 4 mph /  6.4 km/h 15 mph /  24.1 km/h 77 % 0 in /  0.0 mm
07:52 64.8 °F /  18.2 °C 57.4 °F /  14.1 °C 30.2 in /  1022.2 hPa NE 6 mph /  9.7 km/h 15 mph /  24.1 km/h 77 % 0 in /  0.0 mm
08:02 64.9 °F /  18.3 °C 57.6 °F /  14.2 °C 30.2 in /  1022.2 hPa ENE 9 mph /  14.5 km/h 14 mph /  22.5 km/h 77 % 0 in /  0.0 mm
08:12 65.5 °F /  18.6 °C 57.7 °F /  14.3 °C 30.2 in /  1022.2 hPa ENE 2 mph /  3.2 km/h 13 mph /  20.9 km/h 76 % 0 in /  0.0 mm
08:17 65.5 °F /  18.6 °C 57.7 °F /  14.3 °C 30.2 in /  1022.2 hPa ENE 3 mph /  4.8 km/h 12 mph /  19.3 km/h 76 % 0 in /  0.0 mm
08:22 65.7 °F /  18.7 °C 57.6 °F /  14.2 °C 30.2 in /  1022.2 hPa NNE 4 mph /  6.4 km/h 12 mph /  19.3 km/h 75 % 0 in /  0.0 mm
08:27 65.8 °F /  18.8 °C 57.7 °F /  14.3 °C 30.2 in /  1022.2 hPa NE 9 mph /  14.5 km/h 12 mph /  19.3 km/h 75 % 0 in /  0.0 mm
08:32 66 °F /  18.9 °C 57.9 °F /  14.4 °C 30.2 in /  1022.2 hPa NNE 5 mph /  8.0 km/h 12 mph /  19.3 km/h 75 % 0 in /  0.0 mm
08:42 66.7 °F /  19.3 °C 58.1 °F /  14.5 °C 30.2 in /  1022.2 hPa NE 6 mph /  9.7 km/h 10 mph /  16.1 km/h 74 % 0 in /  0.0 mm
08:47 67.3 °F /  19.6 °C 58.6 °F /  14.8 °C 30.2 in /  1022.2 hPa NE 5 mph /  8.0 km/h 10 mph /  16.1 km/h 74 % 0 in /  0.0 mm
08:52 67.5 °F /  19.7 °C 58.1 °F /  14.5 °C 30.2 in /  1022.2 hPa NE 5 mph /  8.0 km/h 10 mph /  16.1 km/h 72 % 0 in /  0.0 mm
09:02 68 °F /  20.0 °C 57.9 °F /  14.4 °C 30.2 in /  1022.2 hPa ENE 5 mph /  8.0 km/h 11 mph /  17.7 km/h 70 % 0 in /  0.0 mm
09:12 68.7 °F /  20.4 °C 57.7 °F /  14.3 °C 30.2 in /  1022.2 hPa ENE 5 mph /  8.0 km/h 14 mph /  22.5 km/h 68 % 0 in /  0.0 mm
09:17 69.3 °F /  20.7 °C 58.3 °F /  14.6 °C 30.2 in /  1022.2 hPa NE 12 mph /  19.3 km/h 13 mph /  20.9 km/h 68 % 0 in /  0.0 mm
09:22 69.4 °F /  20.8 °C 57.6 °F /  14.2 °C 30.2 in /  1022.2 hPa North 12 mph /  19.3 km/h 13 mph /  20.9 km/h 66 % 0 in /  0.0 mm
09:32 70 °F /  21.1 °C 58.1 °F /  14.5 °C 30.2 in /  1022.2 hPa ENE 5 mph /  8.0 km/h 14 mph /  22.5 km/h 66 % 0 in /  0.0 mm
09:42 70.3 °F /  21.3 °C 57.6 °F /  14.2 °C 30.2 in /  1022.2 hPa NE 5 mph /  8.0 km/h 17 mph /  27.4 km/h 64 % 0 in /  0.0 mm
09:52 71.1 °F /  21.7 °C 57.4 °F /  14.1 °C 30.2 in /  1022.2 hPa NNE 6 mph /  9.7 km/h 16 mph /  25.7 km/h 62 % 0 in /  0.0 mm
10:02 71.8 °F /  22.1 °C 57.2 °F /  14.0 °C 30.2 in /  1022.2 hPa NNE 5 mph /  8.0 km/h 16 mph /  25.7 km/h 60 % 0 in /  0.0 mm
10:07 71.8 °F /  22.1 °C 57.2 °F /  14.0 °C 30.2 in /  1022.2 hPa NE 10 mph /  16.1 km/h 17 mph /  27.4 km/h 60 % 0 in /  0.0 mm
10:12 72 °F /  22.2 °C 56.8 °F /  13.8 °C 30.2 in /  1022.2 hPa NE 9 mph /  14.5 km/h 17 mph /  27.4 km/h 59 % 0 in /  0.0 mm
10:17 72.1 °F /  22.3 °C 56.5 °F /  13.6 °C 30.2 in /  1022.2 hPa NE 11 mph /  17.7 km/h 19 mph /  30.6 km/h 58 % 0 in /  0.0 mm
10:22 72.3 °F /  22.4 °C 56.7 °F /  13.7 °C 30.2 in /  1022.2 hPa ENE 7 mph /  11.3 km/h 19 mph /  30.6 km/h 58 % 0 in /  0.0 mm
10:32 73.2 °F /  22.9 °C 56.7 °F /  13.7 °C 30.2 in /  1022.2 hPa ENE 11 mph /  17.7 km/h 19 mph /  30.6 km/h 56 % 0 in /  0.0 mm
10:42 72.7 °F /  22.6 °C 57 °F /  13.9 °C 30.2 in /  1022.2 hPa ENE 16 mph /  25.7 km/h 18 mph /  29.0 km/h 58 % 0 in /  0.0 mm
10:52 73.4 °F /  23.0 °C 57.2 °F /  14.0 °C 30.2 in /  1021.9 hPa North 14 mph /  22.5 km/h 20 mph /  32.2 km/h 57 % 0 in /  0.0 mm
11:02 73.2 °F /  22.9 °C 57 °F /  13.9 °C 30.2 in /  1021.9 hPa NNE 8 mph /  12.9 km/h 19 mph /  30.6 km/h 57 % 0 in /  0.0 mm
11:12 73.8 °F /  23.2 °C 57 °F /  13.9 °C 30.2 in /  1021.9 hPa NE 11 mph /  17.7 km/h 19 mph /  30.6 km/h 56 % 0 in /  0.0 mm
11:17 73.9 °F /  23.3 °C 57.7 °F /  14.3 °C 30.2 in /  1021.6 hPa NE 11 mph /  17.7 km/h 19 mph /  30.6 km/h 57 % 0 in /  0.0 mm
11:22 74.7 °F /  23.7 °C 57.4 °F /  14.1 °C 30.2 in /  1021.6 hPa NNE 12 mph /  19.3 km/h 19 mph /  30.6 km/h 55 % 0 in /  0.0 mm
11:32 74.7 °F /  23.7 °C 57.9 °F /  14.4 °C 30.2 in /  1021.6 hPa East 6 mph /  9.7 km/h 17 mph /  27.4 km/h 56 % 0 in /  0.0 mm
11:42 75 °F /  23.9 °C 57.2 °F /  14.0 °C 30.2 in /  1021.6 hPa NE 5 mph /  8.0 km/h 17 mph /  27.4 km/h 54 % 0 in /  0.0 mm
11:47 75.4 °F /  24.1 °C 57.6 °F /  14.2 °C 30.2 in /  1021.6 hPa NE 7 mph /  11.3 km/h 18 mph /  29.0 km/h 54 % 0 in /  0.0 mm
11:52 75.6 °F /  24.2 °C 57.2 °F /  14.0 °C 30.2 in /  1021.6 hPa NNE 5 mph /  8.0 km/h 18 mph /  29.0 km/h 53 % 0 in /  0.0 mm
12:02 76.3 °F /  24.6 °C 57.9 °F /  14.4 °C 30.2 in /  1021.6 hPa ENE 10 mph /  16.1 km/h 18 mph /  29.0 km/h 53 % 0 in /  0.0 mm
12:07 76.5 °F /  24.7 °C 57.6 °F /  14.2 °C 30.2 in /  1021.6 hPa NE 6 mph /  9.7 km/h 18 mph /  29.0 km/h 52 % 0 in /  0.0 mm
12:12 77 °F /  25.0 °C 58.6 °F /  14.8 °C 30.2 in /  1021.6 hPa NE 10 mph /  16.1 km/h 17 mph /  27.4 km/h 53 % 0 in /  0.0 mm
12:17 77.5 °F /  25.3 °C 58.5 °F /  14.7 °C 30.2 in /  1021.6 hPa NE 8 mph /  12.9 km/h 17 mph /  27.4 km/h 52 % 0 in /  0.0 mm
12:22 77.5 °F /  25.3 °C 58.5 °F /  14.7 °C 30.2 in /  1021.6 hPa NE 8 mph /  12.9 km/h 16 mph /  25.7 km/h 52 % 0 in /  0.0 mm
12:27 77.7 °F /  25.4 °C 57.6 °F /  14.2 °C 30.2 in /  1021.6 hPa NE 7 mph /  11.3 km/h 16 mph /  25.7 km/h 50 % 0 in /  0.0 mm
12:32 77.7 °F /  25.4 °C 57 °F /  13.9 °C 30.2 in /  1021.6 hPa East 7 mph /  11.3 km/h 16 mph /  25.7 km/h 49 % 0 in /  0.0 mm
12:42 78.1 °F /  25.6 °C 57.9 °F /  14.4 °C 30.2 in /  1021.6 hPa East 14 mph /  22.5 km/h 19 mph /  30.6 km/h 50 % 0 in /  0.0 mm
12:47 78.4 °F /  25.8 °C 57.7 °F /  14.3 °C 30.2 in /  1021.2 hPa NE 9 mph /  14.5 km/h 17 mph /  27.4 km/h 49 % 0 in /  0.0 mm
12:52 78.3 °F /  25.7 °C 57.6 °F /  14.2 °C 30.2 in /  1021.2 hPa ENE 6 mph /  9.7 km/h 17 mph /  27.4 km/h 49 % 0 in /  0.0 mm
12:57 79 °F /  26.1 °C 57.6 °F /  14.2 °C 30.2 in /  1021.2 hPa NE 14 mph /  22.5 km/h 17 mph /  27.4 km/h 48 % 0 in /  0.0 mm
13:02 78.8 °F /  26.0 °C 57.4 °F /  14.1 °C 30.2 in /  1021.2 hPa East 6 mph /  9.7 km/h 17 mph /  27.4 km/h 48 % 0 in /  0.0 mm
13:07 79.2 °F /  26.2 °C 58.3 °F /  14.6 °C 30.2 in /  1020.9 hPa North 5 mph /  8.0 km/h 16 mph /  25.7 km/h 49 % 0 in /  0.0 mm
13:12 79.5 °F /  26.4 °C 57.6 °F /  14.2 °C 30.2 in /  1020.9 hPa ENE 10 mph /  16.1 km/h 20 mph /  32.2 km/h 47 % 0 in /  0.0 mm
13:17 79.5 °F /  26.4 °C 57.6 °F /  14.2 °C 30.2 in /  1020.9 hPa East 10 mph /  16.1 km/h 20 mph /  32.2 km/h 47 % 0 in /  0.0 mm
13:22 79.9 °F /  26.6 °C 57.2 °F /  14.0 °C 30.2 in /  1020.9 hPa ENE 11 mph /  17.7 km/h 20 mph /  32.2 km/h 46 % 0 in /  0.0 mm
13:27 80.1 °F /  26.7 °C 57.4 °F /  14.1 °C 30.2 in /  1020.9 hPa ENE 16 mph /  25.7 km/h 18 mph /  29.0 km/h 46 % 0 in /  0.0 mm
13:32 80.2 °F /  26.8 °C 58.8 °F /  14.9 °C 30.2 in /  1020.9 hPa ENE 7 mph /  11.3 km/h 18 mph /  29.0 km/h 48 % 0 in /  0.0 mm
13:37 80.8 °F /  27.1 °C 58.6 °F /  14.8 °C 30.2 in /  1020.9 hPa NE 11 mph /  17.7 km/h 18 mph /  29.0 km/h 47 % 0 in /  0.0 mm
13:42 80.2 °F /  26.8 °C 58.1 °F /  14.5 °C 30.2 in /  1020.9 hPa East 7 mph /  11.3 km/h 17 mph /  27.4 km/h 47 % 0 in /  0.0 mm
13:47 80.8 °F /  27.1 °C 58.1 °F /  14.5 °C 30.2 in /  1020.9 hPa ENE 6 mph /  9.7 km/h 17 mph /  27.4 km/h 46 % 0 in /  0.0 mm
13:52 81 °F /  27.2 °C 57.6 °F /  14.2 °C 30.2 in /  1020.9 hPa ENE 10 mph /  16.1 km/h 17 mph /  27.4 km/h 45 % 0 in /  0.0 mm
13:57 81.1 °F /  27.3 °C 58.5 °F /  14.7 °C 30.1 in /  1020.5 hPa NE 5 mph /  8.0 km/h 16 mph /  25.7 km/h 46 % 0 in /  0.0 mm
14:02 81.3 °F /  27.4 °C 58.6 °F /  14.8 °C 30.1 in /  1020.5 hPa NE 12 mph /  19.3 km/h 16 mph /  25.7 km/h 46 % 0 in /  0.0 mm
14:07 81.1 °F /  27.3 °C 58.5 °F /  14.7 °C 30.1 in /  1020.5 hPa NE 5 mph /  8.0 km/h 18 mph /  29.0 km/h 46 % 0 in /  0.0 mm
14:12 81.5 °F /  27.5 °C 58.6 °F /  14.8 °C 30.1 in /  1020.5 hPa NNE 12 mph /  19.3 km/h 18 mph /  29.0 km/h 46 % 0 in /  0.0 mm
14:17 81.5 °F /  27.5 °C 58.1 °F /  14.5 °C 30.1 in /  1020.5 hPa NE 12 mph /  19.3 km/h 18 mph /  29.0 km/h 45 % 0 in /  0.0 mm
14:22 81.7 °F /  27.6 °C 58.8 °F /  14.9 °C 30.1 in /  1020.5 hPa NE 12 mph /  19.3 km/h 19 mph /  30.6 km/h 46 % 0 in /  0.0 mm
14:27 81.9 °F /  27.7 °C 58.5 °F /  14.7 °C 30.1 in /  1020.5 hPa NNE 10 mph /  16.1 km/h 19 mph /  30.6 km/h 45 % 0 in /  0.0 mm
14:32 82.4 °F /  28.0 °C 59 °F /  15.0 °C 30.1 in /  1020.2 hPa NNE 10 mph /  16.1 km/h 19 mph /  30.6 km/h 45 % 0 in /  0.0 mm
14:37 82.4 °F /  28.0 °C 59 °F /  15.0 °C 30.1 in /  1020.2 hPa NE 8 mph /  12.9 km/h 19 mph /  30.6 km/h 45 % 0 in /  0.0 mm
14:42 82.8 °F /  28.2 °C 59.2 °F /  15.1 °C 30.1 in /  1020.2 hPa NE 3 mph /  4.8 km/h 19 mph /  30.6 km/h 45 % 0 in /  0.0 mm
14:47 83.1 °F /  28.4 °C 58.3 °F /  14.6 °C 30.1 in /  1020.2 hPa NE 12 mph /  19.3 km/h 19 mph /  30.6 km/h 43 % 0 in /  0.0 mm
14:52 83.3 °F /  28.5 °C 59.2 °F /  15.1 °C 30.1 in /  1020.2 hPa NE 6 mph /  9.7 km/h 18 mph /  29.0 km/h 44 % 0 in /  0.0 mm
14:57 83.5 °F /  28.6 °C 59.4 °F /  15.2 °C 30.1 in /  1020.2 hPa NNE 19 mph /  30.6 km/h 19 mph /  30.6 km/h 44 % 0 in /  0.0 mm
15:02 82.8 °F /  28.2 °C 58.6 °F /  14.8 °C 30.1 in /  1020.2 hPa NNE 7 mph /  11.3 km/h 18 mph /  29.0 km/h 44 % 0 in /  0.0 mm
15:07 83.5 °F /  28.6 °C 59.4 °F /  15.2 °C 30.1 in /  1020.2 hPa NNE 8 mph /  12.9 km/h 21 mph /  33.8 km/h 44 % 0 in /  0.0 mm
15:12 83.1 °F /  28.4 °C 59 °F /  15.0 °C 30.1 in /  1020.2 hPa ENE 9 mph /  14.5 km/h 21 mph /  33.8 km/h 44 % 0 in /  0.0 mm
15:17 83.7 °F /  28.7 °C 58.8 °F /  14.9 °C 30.1 in /  1020.2 hPa ENE 9 mph /  14.5 km/h 15 mph /  24.1 km/h 43 % 0 in /  0.0 mm
15:22 83.1 °F /  28.4 °C 59 °F /  15.0 °C 30.1 in /  1020.2 hPa NNE 7 mph /  11.3 km/h 17 mph /  27.4 km/h 44 % 0 in /  0.0 mm
15:27 83.7 °F /  28.7 °C 58.8 °F /  14.9 °C 30.1 in /  1019.9 hPa East 10 mph /  16.1 km/h 17 mph /  27.4 km/h 43 % 0 in /  0.0 mm
15:32 83.8 °F /  28.8 °C 59 °F /  15.0 °C 30.1 in /  1019.9 hPa NE 9 mph /  14.5 km/h 17 mph /  27.4 km/h 43 % 0 in /  0.0 mm
15:37 84 °F /  28.9 °C 58.5 °F /  14.7 °C 30.1 in /  1019.9 hPa NE 6 mph /  9.7 km/h 15 mph /  24.1 km/h 42 % 0 in /  0.0 mm
15:42 83.8 °F /  28.8 °C 59.5 °F /  15.3 °C 30.1 in /  1019.9 hPa East 15 mph /  24.1 km/h 16 mph /  25.7 km/h 44 % 0 in /  0.0 mm
15:47 84 °F /  28.9 °C 58.5 °F /  14.7 °C 30.1 in /  1019.9 hPa ENE 11 mph /  17.7 km/h 16 mph /  25.7 km/h 42 % 0 in /  0.0 mm
15:52 83.8 °F /  28.8 °C 59.5 °F /  15.3 °C 30.1 in /  1019.9 hPa NE 5 mph /  8.0 km/h 16 mph /  25.7 km/h 44 % 0 in /  0.0 mm
15:57 83.8 °F /  28.8 °C 58.3 °F /  14.6 °C 30.1 in /  1019.9 hPa NE 7 mph /  11.3 km/h 16 mph /  25.7 km/h 42 % 0 in /  0.0 mm
16:02 84.4 °F /  29.1 °C 60.1 °F /  15.6 °C 30.1 in /  1019.9 hPa ENE 6 mph /  9.7 km/h 16 mph /  25.7 km/h 44 % 0 in /  0.0 mm
16:07 84.6 °F /  29.2 °C 59 °F /  15.0 °C 30.1 in /  1019.9 hPa NE 8 mph /  12.9 km/h 16 mph /  25.7 km/h 42 % 0 in /  0.0 mm
16:12 84.4 °F /  29.1 °C 58.8 °F /  14.9 °C 30.1 in /  1019.9 hPa NE 7 mph /  11.3 km/h 19 mph /  30.6 km/h 42 % 0 in /  0.0 mm
16:17 84.2 °F /  29.0 °C 59.4 °F /  15.2 °C 30.1 in /  1019.9 hPa ENE 7 mph /  11.3 km/h 19 mph /  30.6 km/h 43 % 0 in /  0.0 mm
16:22 84.7 °F /  29.3 °C 59.7 °F /  15.4 °C 30.1 in /  1019.9 hPa NNE 7 mph /  11.3 km/h 15 mph /  24.1 km/h 43 % 0 in /  0.0 mm
16:27 84.7 °F /  29.3 °C 59.7 °F /  15.4 °C 30.1 in /  1019.5 hPa NE 9 mph /  14.5 km/h 14 mph /  22.5 km/h 43 % 0 in /  0.0 mm
16:32 85.1 °F /  29.5 °C 60.8 °F /  16.0 °C 30.1 in /  1019.9 hPa NNE 6 mph /  9.7 km/h 14 mph /  22.5 km/h 44 % 0 in /  0.0 mm
16:37 84.7 °F /  29.3 °C 59.2 °F /  15.1 °C 30.1 in /  1019.5 hPa NE 5 mph /  8.0 km/h 18 mph /  29.0 km/h 42 % 0 in /  0.0 mm
16:42 84.7 °F /  29.3 °C 59.7 °F /  15.4 °C 30.1 in /  1019.5 hPa ENE 12 mph /  19.3 km/h 18 mph /  29.0 km/h 43 % 0 in /  0.0 mm
16:47 84.6 °F /  29.2 °C 61.5 °F /  16.4 °C 30.1 in /  1019.5 hPa North 5 mph /  8.0 km/h 16 mph /  25.7 km/h 46 % 0 in /  0.0 mm
16:52 84.6 °F /  29.2 °C 61.5 °F /  16.4 °C 30.1 in /  1019.5 hPa ENE 10 mph /  16.1 km/h 16 mph /  25.7 km/h 46 % 0 in /  0.0 mm
16:57 84.6 °F /  29.2 °C 59.5 °F /  15.3 °C 30.1 in /  1019.5 hPa NNE 5 mph /  8.0 km/h 16 mph /  25.7 km/h 43 % 0 in /  0.0 mm
17:02 84.9 °F /  29.4 °C 61.2 °F /  16.2 °C 30.1 in /  1019.5 hPa NE 9 mph /  14.5 km/h 16 mph /  25.7 km/h 45 % 0 in /  0.0 mm
17:12 84.4 °F /  29.1 °C 60.1 °F /  15.6 °C 30.1 in /  1019.5 hPa NE 5 mph /  8.0 km/h 19 mph /  30.6 km/h 44 % 0 in /  0.0 mm
17:17 84.4 °F /  29.1 °C 61.3 °F /  16.3 °C 30.1 in /  1019.5 hPa NE 5 mph /  8.0 km/h 19 mph /  30.6 km/h 46 % 0 in /  0.0 mm
17:22 84.6 °F /  29.2 °C 61.5 °F /  16.4 °C 30.1 in /  1019.2 hPa ENE 7 mph /  11.3 km/h 14 mph /  22.5 km/h 46 % 0 in /  0.0 mm
17:32 84.9 °F /  29.4 °C 60.6 °F /  15.9 °C 30.1 in /  1019.2 hPa NE 11 mph /  17.7 km/h 15 mph /  24.1 km/h 44 % 0 in /  0.0 mm
17:37 84.6 °F /  29.2 °C 60.8 °F /  16.0 °C 30.1 in /  1019.2 hPa NNE 6 mph /  9.7 km/h 15 mph /  24.1 km/h 45 % 0 in /  0.0 mm
17:42 84.4 °F /  29.1 °C 61.3 °F /  16.3 °C 30.1 in /  1019.2 hPa NW 4 mph /  6.4 km/h 15 mph /  24.1 km/h 46 % 0 in /  0.0 mm
17:47 84.6 °F /  29.2 °C 62.1 °F /  16.7 °C 30.1 in /  1019.2 hPa NNE 11 mph /  17.7 km/h 17 mph /  27.4 km/h 47 % 0 in /  0.0 mm
17:52 84.4 °F /  29.1 °C 60.8 °F /  16.0 °C 30.1 in /  1019.2 hPa NE 8 mph /  12.9 km/h 17 mph /  27.4 km/h 45 % 0 in /  0.0 mm
18:02 84 °F /  28.9 °C 61.7 °F /  16.5 °C 30.1 in /  1019.2 hPa ENE 12 mph /  19.3 km/h 17 mph /  27.4 km/h 47 % 0 in /  0.0 mm
18:07 84.4 °F /  29.1 °C 61.3 °F /  16.3 °C 30.1 in /  1019.2 hPa NE 6 mph /  9.7 km/h 17 mph /  27.4 km/h 46 % 0 in /  0.0 mm
18:12 84.2 °F /  29.0 °C 61.7 °F /  16.5 °C 30.1 in /  1019.2 hPa ESE 4 mph /  6.4 km/h 17 mph /  27.4 km/h 47 % 0 in /  0.0 mm
18:17 84.4 °F /  29.1 °C 61.3 °F /  16.3 °C 30.1 in /  1019.2 hPa NNE 8 mph /  12.9 km/h 17 mph /  27.4 km/h 46 % 0 in /  0.0 mm
18:22 84 °F /  28.9 °C 61 °F /  16.1 °C 30.1 in /  1019.2 hPa NNE 4 mph /  6.4 km/h 17 mph /  27.4 km/h 46 % 0 in /  0.0 mm
18:27 84 °F /  28.9 °C 61 °F /  16.1 °C 30.1 in /  1019.2 hPa ENE 8 mph /  12.9 km/h 17 mph /  27.4 km/h 46 % 0 in /  0.0 mm
18:32 83.7 °F /  28.7 °C 60.6 °F /  15.9 °C 30.1 in /  1019.2 hPa North 7 mph /  11.3 km/h 18 mph /  29.0 km/h 46 % 0 in /  0.0 mm
18:37 83.7 °F /  28.7 °C 60.6 °F /  15.9 °C 30.1 in /  1019.2 hPa NE 11 mph /  17.7 km/h 18 mph /  29.0 km/h 46 % 0 in /  0.0 mm
18:42 83.5 °F /  28.6 °C 61.7 °F /  16.5 °C 30.1 in /  1019.2 hPa NNE 10 mph /  16.1 km/h 18 mph /  29.0 km/h 48 % 0 in /  0.0 mm
18:47 83.5 °F /  28.6 °C 61.7 °F /  16.5 °C 30.1 in /  1019.2 hPa NE 9 mph /  14.5 km/h 14 mph /  22.5 km/h 48 % 0 in /  0.0 mm
18:52 83.5 °F /  28.6 °C 61.7 °F /  16.5 °C 30.1 in /  1019.2 hPa NNW 6 mph /  9.7 km/h 16 mph /  25.7 km/h 48 % 0 in /  0.0 mm
18:57 83.5 °F /  28.6 °C 61.7 °F /  16.5 °C 30.1 in /  1019.2 hPa NNW 5 mph /  8.0 km/h 17 mph /  27.4 km/h 48 % 0 in /  0.0 mm
19:02 83.3 °F /  28.5 °C 61.5 °F /  16.4 °C 30.1 in /  1019.2 hPa NNE 9 mph /  14.5 km/h 17 mph /  27.4 km/h 48 % 0 in /  0.0 mm
19:07 83.1 °F /  28.4 °C 60.8 °F /  16.0 °C 30.1 in /  1019.2 hPa NNE 6 mph /  9.7 km/h 17 mph /  27.4 km/h 47 % 0 in /  0.0 mm
19:12 83.1 °F /  28.4 °C 60.8 °F /  16.0 °C 30.1 in /  1019.2 hPa NE 5 mph /  8.0 km/h 17 mph /  27.4 km/h 47 % 0 in /  0.0 mm
19:17 82.9 °F /  28.3 °C 61.2 °F /  16.2 °C 30.1 in /  1019.2 hPa North 4 mph /  6.4 km/h 16 mph /  25.7 km/h 48 % 0 in /  0.0 mm
19:22 83.1 °F /  28.4 °C 61.3 °F /  16.3 °C 30.1 in /  1019.2 hPa NNW 8 mph /  12.9 km/h 16 mph /  25.7 km/h 48 % 0 in /  0.0 mm
19:32 82.8 °F /  28.2 °C 61.7 °F /  16.5 °C 30.1 in /  1019.2 hPa ENE 3 mph /  4.8 km/h 13 mph /  20.9 km/h 49 % 0 in /  0.0 mm
19:37 82.8 °F /  28.2 °C 61.7 °F /  16.5 °C 30.1 in /  1019.2 hPa ENE 7 mph /  11.3 km/h 13 mph /  20.9 km/h 49 % 0 in /  0.0 mm
19:42 82.4 °F /  28.0 °C 60.8 °F /  16.0 °C 30.1 in /  1018.8 hPa NE 6 mph /  9.7 km/h 17 mph /  27.4 km/h 48 % 0 in /  0.0 mm
19:47 82 °F /  27.8 °C 60.4 °F /  15.8 °C 30.1 in /  1018.8 hPa NNE 11 mph /  17.7 km/h 18 mph /  29.0 km/h 48 % 0 in /  0.0 mm
19:52 82 °F /  27.8 °C 60.4 °F /  15.8 °C 30.1 in /  1019.2 hPa NE 11 mph /  17.7 km/h 18 mph /  29.0 km/h 48 % 0 in /  0.0 mm
19:57 81.9 °F /  27.7 °C 60.8 °F /  16.0 °C 30.1 in /  1019.2 hPa NE 10 mph /  16.1 km/h 18 mph /  29.0 km/h 49 % 0 in /  0.0 mm
20:02 81.9 °F /  27.7 °C 60.3 °F /  15.7 °C 30.1 in /  1019.2 hPa NE 9 mph /  14.5 km/h 18 mph /  29.0 km/h 48 % 0 in /  0.0 mm
20:07 81.7 °F /  27.6 °C 60.6 °F /  15.9 °C 30.1 in /  1019.2 hPa NE 12 mph /  19.3 km/h 17 mph /  27.4 km/h 49 % 0 in /  0.0 mm
20:12 81.7 °F /  27.6 °C 60.6 °F /  15.9 °C 30.1 in /  1019.2 hPa NNE 8 mph /  12.9 km/h 17 mph /  27.4 km/h 49 % 0 in /  0.0 mm
20:17 81.3 °F /  27.4 °C 60.3 °F /  15.7 °C 30.1 in /  1019.2 hPa NNE 10 mph /  16.1 km/h 17 mph /  27.4 km/h 49 % 0 in /  0.0 mm
20:22 81.3 °F /  27.4 °C 61 °F /  16.1 °C 30.1 in /  1018.8 hPa NE 8 mph /  12.9 km/h 14 mph /  22.5 km/h 50 % 0 in /  0.0 mm
20:27 81.1 °F /  27.3 °C 60.8 °F /  16.0 °C 30.1 in /  1019.2 hPa NNE 8 mph /  12.9 km/h 14 mph /  22.5 km/h 50 % 0 in /  0.0 mm
20:32 81 °F /  27.2 °C 60.6 °F /  15.9 °C 30.1 in /  1018.8 hPa NNE 8 mph /  12.9 km/h 14 mph /  22.5 km/h 50 % 0 in /  0.0 mm
20:37 80.8 °F /  27.1 °C 60.4 °F /  15.8 °C 30.1 in /  1018.8 hPa NNE 9 mph /  14.5 km/h 15 mph /  24.1 km/h 50 % 0 in /  0.0 mm
20:42 80.6 °F /  27.0 °C 60.3 °F /  15.7 °C 30.1 in /  1018.8 hPa NE 6 mph /  9.7 km/h 15 mph /  24.1 km/h 50 % 0 in /  0.0 mm
20:47 80.4 °F /  26.9 °C 60.6 °F /  15.9 °C 30.1 in /  1018.8 hPa NNE 5 mph /  8.0 km/h 13 mph /  20.9 km/h 51 % 0 in /  0.0 mm
20:52 80.2 °F /  26.8 °C 61 °F /  16.1 °C 30.1 in /  1018.8 hPa North 7 mph /  11.3 km/h 13 mph /  20.9 km/h 52 % 0 in /  0.0 mm
20:57 79.9 °F /  26.6 °C 60.6 °F /  15.9 °C 30.1 in /  1018.8 hPa North 2 mph /  3.2 km/h 10 mph /  16.1 km/h 52 % 0 in /  0.0 mm
21:02 79.5 °F /  26.4 °C 60.4 °F /  15.8 °C 30.1 in /  1018.8 hPa NE 3 mph /  4.8 km/h 10 mph /  16.1 km/h 52 % 0 in /  0.0 mm
21:12 79 °F /  26.1 °C 60.4 °F /  15.8 °C 30.1 in /  1019.2 hPa NNE 6 mph /  9.7 km/h 10 mph /  16.1 km/h 53 % 0 in /  0.0 mm
21:22 78.6 °F /  25.9 °C 60.1 °F /  15.6 °C 30.1 in /  1019.2 hPa North 6 mph /  9.7 km/h 13 mph /  20.9 km/h 53 % 0 in /  0.0 mm
21:27 78.3 °F /  25.7 °C 60.3 °F /  15.7 °C 30.1 in /  1019.2 hPa NNE 10 mph /  16.1 km/h 13 mph /  20.9 km/h 54 % 0 in /  0.0 mm
21:32 77.9 °F /  25.5 °C 59.9 °F /  15.5 °C 30.1 in /  1019.2 hPa NNE 10 mph /  16.1 km/h 13 mph /  20.9 km/h 54 % 0 in /  0.0 mm
21:37 77.4 °F /  25.2 °C 59.9 °F /  15.5 °C 30.1 in /  1019.2 hPa NE 3 mph /  4.8 km/h 11 mph /  17.7 km/h 55 % 0 in /  0.0 mm
21:42 77 °F /  25.0 °C 60.1 °F /  15.6 °C 30.1 in /  1019.2 hPa NE 7 mph /  11.3 km/h 11 mph /  17.7 km/h 56 % 0 in /  0.0 mm
21:47 76.6 °F /  24.8 °C 59.7 °F /  15.4 °C 30.1 in /  1019.2 hPa NNE 5 mph /  8.0 km/h 10 mph /  16.1 km/h 56 % 0 in /  0.0 mm
21:52 76.5 °F /  24.7 °C 60.1 °F /  15.6 °C 30.1 in /  1019.2 hPa NNE 4 mph /  6.4 km/h 9 mph /  14.5 km/h 57 % 0 in /  0.0 mm
21:57 76.1 °F /  24.5 °C 60.3 °F /  15.7 °C 30.1 in /  1019.2 hPa NE 4 mph /  6.4 km/h 9 mph /  14.5 km/h 58 % 0 in /  0.0 mm
22:02 75.6 °F /  24.2 °C 60.3 °F /  15.7 °C 30.1 in /  1019.2 hPa ENE 2 mph /  3.2 km/h 9 mph /  14.5 km/h 59 % 0 in /  0.0 mm
22:07 75 °F /  23.9 °C 60.3 °F /  15.7 °C 30.1 in /  1019.2 hPa NNE 4 mph /  6.4 km/h 8 mph /  12.9 km/h 60 % 0 in /  0.0 mm
22:12 74.8 °F /  23.8 °C 60.1 °F /  15.6 °C 30.1 in /  1019.2 hPa NE 6 mph /  9.7 km/h 8 mph /  12.9 km/h 60 % 0 in /  0.0 mm
22:17 74.7 °F /  23.7 °C 60.3 °F /  15.7 °C 30.1 in /  1019.5 hPa NNE 2 mph /  3.2 km/h 7 mph /  11.3 km/h 61 % 0 in /  0.0 mm
22:22 74.1 °F /  23.4 °C 60.3 °F /  15.7 °C 30.1 in /  1019.2 hPa NNE 5 mph /  8.0 km/h 7 mph /  11.3 km/h 62 % 0 in /  0.0 mm
22:27 73.8 °F /  23.2 °C 59.9 °F /  15.5 °C 30.1 in /  1019.5 hPa North 6 mph /  9.7 km/h 7 mph /  11.3 km/h 62 % 0 in /  0.0 mm
22:32 73.4 °F /  23.0 °C 60.1 °F /  15.6 °C 30.1 in /  1019.5 hPa NE 3 mph /  4.8 km/h 7 mph /  11.3 km/h 63 % 0 in /  0.0 mm
22:37 73.6 °F /  23.1 °C 60.3 °F /  15.7 °C 30.1 in /  1019.2 hPa NNE 7 mph /  11.3 km/h 9 mph /  14.5 km/h 63 % 0 in /  0.0 mm
22:42 73.8 °F /  23.2 °C 60.4 °F /  15.8 °C 30.1 in /  1019.5 hPa NE 6 mph /  9.7 km/h 9 mph /  14.5 km/h 63 % 0 in /  0.0 mm
22:47 73.6 °F /  23.1 °C 60.3 °F /  15.7 °C 30.1 in /  1019.5 hPa NNE 4 mph /  6.4 km/h 9 mph /  14.5 km/h 63 % 0 in /  0.0 mm
22:52 73 °F /  22.8 °C 60.1 °F /  15.6 °C 30.1 in /  1019.5 hPa NNE 4 mph /  6.4 km/h 9 mph /  14.5 km/h 64 % 0 in /  0.0 mm
22:57 72.9 °F /  22.7 °C 59.9 °F /  15.5 °C 30.1 in /  1019.5 hPa NE 4 mph /  6.4 km/h 8 mph /  12.9 km/h 64 % 0 in /  0.0 mm
23:02 72.5 °F /  22.5 °C 60.1 °F /  15.6 °C 30.1 in /  1019.5 hPa NE 7 mph /  11.3 km/h 8 mph /  12.9 km/h 65 % 0 in /  0.0 mm
23:07 72.3 °F /  22.4 °C 59.9 °F /  15.5 °C 30.1 in /  1019.5 hPa NNE 4 mph /  6.4 km/h 8 mph /  12.9 km/h 65 % 0 in /  0.0 mm
23:12 72 °F /  22.2 °C 59.9 °F /  15.5 °C 30.1 in /  1019.5 hPa NNE 6 mph /  9.7 km/h 8 mph /  12.9 km/h 66 % 0 in /  0.0 mm
23:17 72.1 °F /  22.3 °C 60.1 °F /  15.6 °C 30.1 in /  1019.5 hPa NNE 5 mph /  8.0 km/h 8 mph /  12.9 km/h 66 % 0 in /  0.0 mm
23:22 72 °F /  22.2 °C 59.9 °F /  15.5 °C 30.1 in /  1019.5 hPa NNE 3 mph /  4.8 km/h 7 mph /  11.3 km/h 66 % 0 in /  0.0 mm
23:27 71.8 °F /  22.1 °C 59.7 °F /  15.4 °C 30.1 in /  1019.5 hPa NNE 4 mph /  6.4 km/h 7 mph /  11.3 km/h 66 % 0 in /  0.0 mm
23:32 71.2 °F /  21.8 °C 59.7 °F /  15.4 °C 30.1 in /  1019.5 hPa NNE 3 mph /  4.8 km/h 7 mph /  11.3 km/h 67 % 0 in /  0.0 mm
23:37 71.2 °F /  21.8 °C 59.7 °F /  15.4 °C 30.1 in /  1019.5 hPa NNE 4 mph /  6.4 km/h 7 mph /  11.3 km/h 67 % 0 in /  0.0 mm
23:42 71.6 °F /  22.0 °C 59.7 °F /  15.4 °C 30.1 in /  1019.5 hPa NE 3 mph /  4.8 km/h 9 mph /  14.5 km/h 66 % 0 in /  0.0 mm
23:47 71.6 °F /  22.0 °C 59.7 °F /  15.4 °C 30.1 in /  1019.5 hPa NE 2 mph /  3.2 km/h 9 mph /  14.5 km/h 66 % 0 in /  0.0 mm
23:52 71.6 °F /  22.0 °C 59.7 °F /  15.4 °C 30.1 in /  1019.5 hPa NE 3 mph /  4.8 km/h 9 mph /  14.5 km/h 66 % 0 in /  0.0 mm
23:57 71.4 °F /  21.9 °C 59.9 °F /  15.5 °C 30.1 in /  1019.9 hPa NE 4 mph /  6.4 km/h 8 mph /  12.9 km/h 67 % 0 in /  0.0 mm
Meteo18
Compliments of Weather Underground - 4 mb

Script developed by  Jim McMurry - jmcmurry@mwt.net Adapted for the template by  Wim van der Kuil - Leuven-Template.eu

You find our weather info also at:

European Weather Network

Weather Underground

Equipment we use:

Weather-station
Davis Vue

Weather-program
Meteohub

Weather-server
Raspberry PI 2 B+

Provider
1 and 1

Davis Vue

Meteohub

Raspberry PI 2 B+

1 and 1